PWSweather.com
Personal Weather Stations
Station Observations
PENICUIKWS
PenicuikGB

PenicuikGB

Lat: 55.830932, Lon: -3.224533000000065

Elevation: 166

Station Type: Fine Offset

http://weather.penicuik.org

High Low Average
Temperature 69.3°F20.7°C 43.0°F6.1°C 56.8°F13.8°C
Dew Point 54.6°F12.6°C 42.2°F5.7°C 49.0°F9.4°C
Winds 8.4 mph 13.5 kmh Calm Calm 3.0 mph SSW4.8 kmh SSW
Wind Gusts 18.3 mph29.5 kmh -- 6.0 mph9.7 kmh
Humidity 98% 50% 77%
Pressure 30.09 in1019.0 mb 29.47 in998.0 mb -
Precipitation 0.18 in4.6 mm - -
Hour Temp Dew Point Humidity Winds Wind Gusts Pressure Precip Precip Rate Daily Precip Total
12:00 AM 47.3°F8.5°C 45.1°F7.3°C 92% 0.9 mph N1.4 kmh N 1.6 mph2.6 kmh 30.09 in1019.0 mb 0.00 in0.0 mm 0.00 in0.0 mm 0.00 in0.0 mm
12:15 AM 46.6°F8.1°C 44.4°F6.9°C 92% 0.2 mph SW0.3 kmh SW 0.7 mph1.1 kmh 30.09 in1019.0 mb 0.00 in0.0 mm 0.00 in0.0 mm 0.00 in0.0 mm
12:30 AM 45.9°F7.7°C 43.7°F6.5°C 92% 0.3 mph SW0.5 kmh SW 1.6 mph2.6 kmh 30.09 in1019.0 mb 0.00 in0.0 mm 0.00 in0.0 mm 0.00 in0.0 mm
12:45 AM 45.3°F7.4°C 43.1°F6.2°C 92% Calm Calm -- 30.09 in1019.0 mb 0.00 in0.0 mm 0.00 in0.0 mm 0.00 in0.0 mm
01:00 AM 45.3°F7.4°C 43.4°F6.3°C 93% 0.4 mph WSW0.6 kmh WSW 1.6 mph2.6 kmh 30.09 in1019.0 mb 0.00 in0.0 mm 0.00 in0.0 mm 0.00 in0.0 mm
01:15 AM 45.1°F7.3°C 43.5°F6.4°C 94% 0.2 mph NW0.3 kmh NW 0.7 mph1.1 kmh 30.08 in1018.6 mb 0.00 in0.0 mm 0.00 in0.0 mm 0.00 in0.0 mm
01:30 AM 45.0°F7.2°C 43.3°F6.3°C 94% Calm Calm -- 30.08 in1018.6 mb 0.00 in0.0 mm 0.00 in0.0 mm 0.00 in0.0 mm
01:45 AM 45.3°F7.4°C 44.0°F6.7°C 95% 0.2 mph SW0.3 kmh SW 1.6 mph2.6 kmh 30.08 in1018.6 mb 0.00 in0.0 mm 0.00 in0.0 mm 0.00 in0.0 mm
02:00 AM 45.5°F7.5°C 44.4°F6.9°C 96% Calm Calm -- 30.08 in1018.6 mb 0.00 in0.0 mm 0.00 in0.0 mm 0.00 in0.0 mm
02:15 AM 45.3°F7.4°C 44.2°F6.8°C 96% 0.3 mph WNW0.5 kmh WNW 1.6 mph2.6 kmh 30.08 in1018.6 mb 0.00 in0.0 mm 0.00 in0.0 mm 0.00 in0.0 mm
02:30 AM 44.8°F7.1°C 43.7°F6.5°C 96% 0.4 mph NW0.6 kmh NW 1.6 mph2.6 kmh 30.07 in1018.3 mb 0.00 in0.0 mm 0.00 in0.0 mm 0.00 in0.0 mm
02:45 AM 44.4°F6.9°C 43.6°F6.4°C 97% 0.2 mph WSW0.3 kmh WSW 1.6 mph2.6 kmh 30.06 in1017.9 mb 0.00 in0.0 mm 0.00 in0.0 mm 0.00 in0.0 mm
03:00 AM 44.2°F6.8°C 43.4°F6.3°C 97% 0.9 mph S1.4 kmh S 2.2 mph3.5 kmh 30.06 in1017.9 mb 0.00 in0.0 mm 0.00 in0.0 mm 0.00 in0.0 mm
03:15 AM 44.1°F6.7°C 43.3°F6.3°C 97% 0.7 mph S1.1 kmh S 2.2 mph3.5 kmh 30.04 in1017.3 mb 0.00 in0.0 mm 0.00 in0.0 mm 0.00 in0.0 mm
03:30 AM 43.7°F6.5°C 42.9°F6.1°C 97% 0.6 mph SW1.0 kmh SW 1.6 mph2.6 kmh 30.04 in1017.3 mb 0.00 in0.0 mm 0.00 in0.0 mm 0.00 in0.0 mm
03:45 AM 43.2°F6.2°C 42.4°F5.8°C 97% 0.2 mph SW0.3 kmh SW 1.6 mph2.6 kmh 30.04 in1017.3 mb 0.00 in0.0 mm 0.00 in0.0 mm 0.00 in0.0 mm
04:00 AM 43.2°F6.2°C 42.4°F5.8°C 97% 0.5 mph W0.8 kmh W 1.6 mph2.6 kmh 30.04 in1017.3 mb 0.00 in0.0 mm 0.00 in0.0 mm 0.00 in0.0 mm
04:15 AM 43.0°F6.1°C 42.2°F5.7°C 97% 0.2 mph NW0.3 kmh NW 0.7 mph1.1 kmh 30.04 in1017.3 mb 0.00 in0.0 mm 0.00 in0.0 mm 0.00 in0.0 mm
04:45 AM 44.2°F6.8°C 43.7°F6.5°C 98% 1.1 mph NW1.8 kmh NW 2.2 mph3.5 kmh 30.04 in1017.3 mb 0.00 in0.0 mm 0.00 in0.0 mm 0.00 in0.0 mm
05:15 AM 46.9°F8.3°C 46.1°F7.8°C 97% 1.5 mph W2.4 kmh W 4.5 mph7.2 kmh 30.04 in1017.3 mb 0.00 in0.0 mm 0.00 in0.0 mm 0.00 in0.0 mm
05:30 AM 48.0°F8.9°C 47.2°F8.4°C 97% 2.0 mph SW3.2 kmh SW 3.1 mph5.0 kmh 30.03 in1016.9 mb 0.00 in0.0 mm 0.00 in0.0 mm 0.00 in0.0 mm
05:45 AM 51.1°F10.6°C 49.4°F9.7°C 94% 3.8 mph SSE6.1 kmh SSE 7.6 mph12.2 kmh 30.02 in1016.6 mb 0.00 in0.0 mm 0.00 in0.0 mm 0.00 in0.0 mm
06:15 AM 58.6°F14.8°C 48.9°F9.4°C 70% 3.3 mph E5.3 kmh E 6.9 mph11.1 kmh 30.03 in1016.9 mb 0.00 in0.0 mm 0.00 in0.0 mm 0.00 in0.0 mm
06:30 AM 56.7°F13.7°C 45.8°F7.7°C 67% 3.0 mph SE4.8 kmh SE 5.4 mph8.7 kmh 30.02 in1016.6 mb 0.00 in0.0 mm 0.00 in0.0 mm 0.00 in0.0 mm
06:45 AM 60.8°F16.0°C 47.3°F8.5°C 61% 3.2 mph S5.1 kmh S 5.4 mph8.7 kmh 30.02 in1016.6 mb 0.00 in0.0 mm 0.00 in0.0 mm 0.00 in0.0 mm
07:00 AM 61.3°F16.3°C 46.5°F8.1°C 58% 3.1 mph NW5.0 kmh NW 8.3 mph13.4 kmh 30.02 in1016.6 mb 0.00 in0.0 mm 0.00 in0.0 mm 0.00 in0.0 mm
07:15 AM 57.6°F14.2°C 45.9°F7.7°C 65% 2.7 mph S4.3 kmh S 4.5 mph7.2 kmh 30.02 in1016.6 mb 0.00 in0.0 mm 0.00 in0.0 mm 0.00 in0.0 mm
07:30 AM 61.2°F16.2°C 48.1°F8.9°C 62% 3.3 mph NNE5.3 kmh NNE 4.5 mph7.2 kmh 30.01 in1016.3 mb 0.00 in0.0 mm 0.00 in0.0 mm 0.00 in0.0 mm
07:45 AM 64.4°F18.0°C 47.4°F8.6°C 54% 3.0 mph SW4.8 kmh SW 3.8 mph6.1 kmh 30.00 in1015.9 mb 0.00 in0.0 mm 0.00 in0.0 mm 0.00 in0.0 mm
08:00 AM 64.6°F18.1°C 46.6°F8.1°C 52% 3.5 mph WSW5.6 kmh WSW 5.4 mph8.7 kmh 30.00 in1015.9 mb 0.00 in0.0 mm 0.00 in0.0 mm 0.00 in0.0 mm
08:15 AM 65.5°F18.6°C 47.4°F8.6°C 52% 3.4 mph SSW5.5 kmh SSW 5.4 mph8.7 kmh 30.00 in1015.9 mb 0.00 in0.0 mm 0.00 in0.0 mm 0.00 in0.0 mm
08:30 AM 63.5°F17.5°C 45.1°F7.3°C 51% 4.2 mph SSW6.8 kmh SSW 6.9 mph11.1 kmh 30.00 in1015.9 mb 0.00 in0.0 mm 0.00 in0.0 mm 0.00 in0.0 mm
08:45 AM 61.7°F16.5°C 46.3°F7.9°C 57% 2.9 mph SSW4.7 kmh SSW 5.4 mph8.7 kmh 30.00 in1015.9 mb 0.00 in0.0 mm 0.00 in0.0 mm 0.00 in0.0 mm
09:00 AM 65.1°F18.4°C 48.1°F8.9°C 54% 3.3 mph WSW5.3 kmh WSW 6.0 mph9.7 kmh 29.99 in1015.6 mb 0.00 in0.0 mm 0.00 in0.0 mm 0.00 in0.0 mm
09:15 AM 63.0°F17.2°C 45.6°F7.6°C 53% 3.4 mph SW5.5 kmh SW 6.0 mph9.7 kmh 29.98 in1015.2 mb 0.00 in0.0 mm 0.00 in0.0 mm 0.00 in0.0 mm
09:30 AM 62.6°F17.0°C 45.7°F7.6°C 54% 3.5 mph SW5.6 kmh SW 6.0 mph9.7 kmh 29.97 in1014.9 mb 0.00 in0.0 mm 0.00 in0.0 mm 0.00 in0.0 mm
09:45 AM 64.8°F18.2°C 48.2°F9.0°C 55% 3.7 mph SW6.0 kmh SW 7.6 mph12.2 kmh 29.97 in1014.9 mb 0.00 in0.0 mm 0.00 in0.0 mm 0.00 in0.0 mm
10:00 AM 69.3°F20.7°C 49.8°F9.9°C 50% 3.4 mph WSW5.5 kmh WSW 5.4 mph8.7 kmh 29.96 in1014.6 mb 0.00 in0.0 mm 0.00 in0.0 mm 0.00 in0.0 mm
10:15 AM 66.7°F19.3°C 47.5°F8.6°C 50% 5.1 mph NW8.2 kmh NW 8.3 mph13.4 kmh 29.96 in1014.6 mb 0.00 in0.0 mm 0.00 in0.0 mm 0.00 in0.0 mm
10:30 AM 66.2°F19.0°C 47.6°F8.7°C 51% 3.0 mph SSW4.8 kmh SSW 5.4 mph8.7 kmh 29.96 in1014.6 mb 0.00 in0.0 mm 0.00 in0.0 mm 0.00 in0.0 mm
10:45 AM 64.9°F18.3°C 47.9°F8.8°C 54% 2.9 mph E4.7 kmh E 4.5 mph7.2 kmh 29.95 in1014.2 mb 0.00 in0.0 mm 0.00 in0.0 mm 0.00 in0.0 mm
11:00 AM 65.7°F18.7°C 48.1°F8.9°C 53% 5.5 mph SE8.9 kmh SE 8.3 mph13.4 kmh 29.94 in1013.9 mb 0.00 in0.0 mm 0.00 in0.0 mm 0.00 in0.0 mm
11:15 AM 66.0°F18.9°C 48.9°F9.4°C 54% 4.2 mph W6.8 kmh W 6.0 mph9.7 kmh 29.94 in1013.9 mb 0.00 in0.0 mm 0.00 in0.0 mm 0.00 in0.0 mm
11:30 AM 65.3°F18.5°C 48.2°F9.0°C 54% 3.6 mph WSW5.8 kmh WSW 4.5 mph7.2 kmh 29.93 in1013.5 mb 0.00 in0.0 mm 0.00 in0.0 mm 0.00 in0.0 mm
12:00 PM 65.3°F18.5°C 48.2°F9.0°C 54% 3.5 mph ESE5.6 kmh ESE 4.5 mph7.2 kmh 29.91 in1012.9 mb 0.00 in0.0 mm 0.00 in0.0 mm 0.00 in0.0 mm
12:15 PM 64.8°F18.2°C 48.2°F9.0°C 55% 3.4 mph WSW5.5 kmh WSW 5.4 mph8.7 kmh 29.90 in1012.5 mb 0.00 in0.0 mm 0.00 in0.0 mm 0.00 in0.0 mm
12:30 PM 63.9°F17.7°C 48.8°F9.3°C 58% 3.8 mph WNW6.1 kmh WNW 6.0 mph9.7 kmh 29.91 in1012.9 mb 0.00 in0.0 mm 0.00 in0.0 mm 0.00 in0.0 mm
12:45 PM 63.9°F17.7°C 47.4°F8.6°C 55% 5.0 mph ENE8.0 kmh ENE 8.3 mph13.4 kmh 29.90 in1012.5 mb 0.00 in0.0 mm 0.00 in0.0 mm 0.00 in0.0 mm
01:00 PM 63.5°F17.5°C 48.5°F9.2°C 58% 4.3 mph WSW6.9 kmh WSW 12.1 mph19.5 kmh 29.90 in1012.5 mb 0.00 in0.0 mm 0.00 in0.0 mm 0.00 in0.0 mm
01:15 PM 63.0°F17.2°C 48.0°F8.9°C 58% 3.0 mph N4.8 kmh N 5.4 mph8.7 kmh 29.89 in1012.2 mb 0.00 in0.0 mm 0.00 in0.0 mm 0.00 in0.0 mm
01:30 PM 62.8°F17.1°C 48.7°F9.3°C 60% 4.2 mph NE6.8 kmh NE 6.0 mph9.7 kmh 29.89 in1012.2 mb 0.00 in0.0 mm 0.00 in0.0 mm 0.00 in0.0 mm
01:45 PM 62.6°F17.0°C 50.7°F10.4°C 65% 3.6 mph ESE5.8 kmh ESE 5.4 mph8.7 kmh 29.88 in1011.9 mb 0.00 in0.0 mm 0.00 in0.0 mm 0.00 in0.0 mm
02:15 PM 62.2°F16.8°C 50.8°F10.4°C 66% 4.5 mph ENE7.2 kmh ENE 6.0 mph9.7 kmh 29.87 in1011.5 mb 0.00 in0.0 mm 0.00 in0.0 mm 0.00 in0.0 mm
02:45 PM 61.9°F16.6°C 51.2°F10.7°C 68% 4.4 mph WNW7.1 kmh WNW 9.2 mph14.8 kmh 29.85 in1010.8 mb 0.00 in0.0 mm 0.00 in0.0 mm 0.00 in0.0 mm
03:00 PM 61.2°F16.2°C 51.3°F10.7°C 70% 4.1 mph SW6.6 kmh SW 6.9 mph11.1 kmh 29.84 in1010.5 mb 0.00 in0.0 mm 0.00 in0.0 mm 0.00 in0.0 mm
03:15 PM 61.5°F16.4°C 51.7°F10.9°C 70% 4.7 mph SW7.6 kmh SW 7.6 mph12.2 kmh 29.84 in1010.5 mb 0.00 in0.0 mm 0.00 in0.0 mm 0.00 in0.0 mm
03:30 PM 61.9°F16.6°C 52.0°F11.1°C 70% 4.3 mph NW6.9 kmh NW 7.6 mph12.2 kmh 29.83 in1010.2 mb 0.00 in0.0 mm 0.00 in0.0 mm 0.00 in0.0 mm
03:45 PM 61.7°F16.5°C 51.8°F11.0°C 70% 4.0 mph SSE6.4 kmh SSE 7.6 mph12.2 kmh 29.82 in1009.8 mb 0.00 in0.0 mm 0.00 in0.0 mm 0.00 in0.0 mm
04:00 PM 61.5°F16.4°C 52.0°F11.1°C 71% 6.4 mph SE10.3 kmh SE 11.4 mph18.3 kmh 29.81 in1009.5 mb 0.00 in0.0 mm 0.00 in0.0 mm 0.00 in0.0 mm
04:15 PM 61.2°F16.2°C 51.7°F10.9°C 71% 7.8 mph S12.6 kmh S 15.2 mph24.5 kmh 29.80 in1009.1 mb 0.00 in0.0 mm 0.00 in0.0 mm 0.00 in0.0 mm
04:30 PM 61.2°F16.2°C 52.1°F11.2°C 72% 5.4 mph S8.7 kmh S 7.6 mph12.2 kmh 29.79 in1008.8 mb 0.00 in0.0 mm 0.00 in0.0 mm 0.00 in0.0 mm
04:45 PM 61.3°F16.3°C 51.9°F11.1°C 71% 4.1 mph NE6.6 kmh NE 8.3 mph13.4 kmh 29.78 in1008.5 mb 0.00 in0.0 mm 0.00 in0.0 mm 0.00 in0.0 mm
05:00 PM 61.2°F16.2°C 52.1°F11.2°C 72% 4.2 mph SE6.8 kmh SE 9.2 mph14.8 kmh 29.77 in1008.1 mb 0.00 in0.0 mm 0.00 in0.0 mm 0.00 in0.0 mm
05:15 PM 60.6°F15.9°C 51.9°F11.1°C 73% 6.5 mph SSE10.5 kmh SSE 11.4 mph18.3 kmh 29.77 in1008.1 mb 0.00 in0.0 mm 0.00 in0.0 mm 0.00 in0.0 mm
05:45 PM 59.4°F15.2°C 53.2°F11.8°C 80% 4.1 mph WSW6.6 kmh WSW 10.7 mph17.2 kmh 29.75 in1007.5 mb 0.00 in0.0 mm 0.00 in0.0 mm 0.00 in0.0 mm
06:00 PM 58.5°F14.7°C 54.0°F12.2°C 85% 3.0 mph NNE4.8 kmh NNE 4.5 mph7.2 kmh 29.74 in1007.1 mb 0.00 in0.0 mm 0.00 in0.0 mm 0.00 in0.0 mm
06:15 PM 57.9°F14.4°C 53.1°F11.7°C 84% 4.2 mph N6.8 kmh N 6.0 mph9.7 kmh 29.72 in1006.4 mb 0.01 in0.3 mm 0.04 in1.0 mm 0.01 in0.3 mm
06:30 PM 57.7°F14.3°C 52.3°F11.3°C 82% 3.9 mph N6.3 kmh N 6.9 mph11.1 kmh 29.72 in1006.4 mb 0.01 in0.3 mm 0.00 in0.0 mm 0.01 in0.3 mm
06:45 PM 57.2°F14.0°C 52.4°F11.3°C 84% 3.9 mph N6.3 kmh N 7.6 mph12.2 kmh 29.70 in1005.8 mb 0.01 in0.3 mm 0.00 in0.0 mm 0.01 in0.3 mm
07:00 PM 56.8°F13.8°C 53.3°F11.8°C 88% 4.3 mph NW6.9 kmh NW 7.6 mph12.2 kmh 29.70 in1005.8 mb 0.01 in0.3 mm 0.00 in0.0 mm 0.01 in0.3 mm
07:15 PM 56.5°F13.6°C 53.6°F12.0°C 90% 3.4 mph NW5.5 kmh NW 6.9 mph11.1 kmh 29.68 in1005.1 mb 0.00 in0.0 mm 0.00 in0.0 mm 0.01 in0.3 mm
07:30 PM 56.3°F13.5°C 54.0°F12.2°C 92% 3.9 mph SSW6.3 kmh SSW 8.3 mph13.4 kmh 29.67 in1004.7 mb 0.01 in0.3 mm 0.04 in1.0 mm 0.02 in0.5 mm
08:00 PM 56.7°F13.7°C 54.4°F12.4°C 92% 3.5 mph WSW5.6 kmh WSW 4.5 mph7.2 kmh 29.64 in1003.7 mb 0.02 in0.5 mm 0.02 in0.5 mm 0.04 in1.0 mm
08:15 PM 56.5°F13.6°C 54.2°F12.3°C 92% 3.6 mph NW5.8 kmh NW 4.5 mph7.2 kmh 29.63 in1003.4 mb 0.02 in0.5 mm 0.00 in0.0 mm 0.04 in1.0 mm
08:30 PM 56.7°F13.7°C 54.4°F12.4°C 92% 3.7 mph NW6.0 kmh NW 9.2 mph14.8 kmh 29.62 in1003.0 mb 0.01 in0.3 mm 0.00 in0.0 mm 0.04 in1.0 mm
08:45 PM 56.8°F13.8°C 54.3°F12.4°C 91% 3.3 mph N5.3 kmh N 8.3 mph13.4 kmh 29.60 in1002.4 mb 0.00 in0.0 mm 0.00 in0.0 mm 0.04 in1.0 mm
09:00 PM 56.5°F13.6°C 53.9°F12.2°C 91% 4.8 mph ESE7.7 kmh ESE 6.9 mph11.1 kmh 29.59 in1002.0 mb 0.01 in0.3 mm 0.01 in0.3 mm 0.05 in1.3 mm
09:15 PM 56.3°F13.5°C 54.0°F12.2°C 92% 4.9 mph WNW7.9 kmh WNW 9.2 mph14.8 kmh 29.57 in1001.4 mb 0.01 in0.3 mm 0.00 in0.0 mm 0.05 in1.3 mm
09:45 PM 55.9°F13.3°C 54.0°F12.2°C 93% 6.5 mph NNW10.5 kmh NNW 9.2 mph14.8 kmh 29.55 in1000.7 mb 0.05 in1.3 mm 0.08 in2.0 mm 0.08 in2.0 mm
10:00 PM 55.9°F13.3°C 54.2°F12.3°C 94% 4.3 mph N6.9 kmh N 6.9 mph11.1 kmh 29.54 in1000.3 mb 0.04 in1.0 mm 0.00 in0.0 mm 0.08 in2.0 mm
10:15 PM 55.8°F13.2°C 54.1°F12.3°C 94% 5.2 mph E8.4 kmh E 7.6 mph12.2 kmh 29.53 in1000.0 mb 0.06 in1.5 mm 0.08 in2.0 mm 0.11 in2.8 mm
10:30 PM 55.8°F13.2°C 54.1°F12.3°C 94% 5.6 mph S9.0 kmh S 9.2 mph14.8 kmh 29.53 in1000.0 mb 0.07 in1.8 mm 0.04 in1.0 mm 0.13 in3.3 mm
10:45 PM 55.6°F13.1°C 54.2°F12.3°C 95% 7.2 mph E11.6 kmh E 18.3 mph29.5 kmh 29.51 in999.3 mb 0.09 in2.3 mm 0.08 in2.0 mm 0.18 in4.6 mm
11:00 PM 55.8°F13.2°C 54.4°F12.4°C 95% 8.4 mph NW13.5 kmh NW 13.6 mph21.9 kmh 29.51 in999.3 mb 0.08 in2.0 mm 0.00 in0.0 mm 0.13 in3.3 mm
11:15 PM 55.8°F13.2°C 54.4°F12.4°C 95% 5.9 mph NNW9.5 kmh NNW 12.1 mph19.5 kmh 29.50 in999.0 mb 0.08 in2.0 mm 0.00 in0.0 mm 0.01 in0.3 mm
11:30 PM 55.9°F13.3°C 54.5°F12.5°C 95% 5.3 mph N8.5 kmh N 9.2 mph14.8 kmh 29.48 in998.3 mb 0.06 in1.5 mm 0.00 in0.0 mm 0.01 in0.3 mm
11:45 PM 56.3°F13.5°C 54.6°F12.6°C 94% 6.2 mph NNW10.0 kmh NNW 12.1 mph19.5 kmh 29.47 in998.0 mb 0.01 in0.3 mm 0.00 in0.0 mm 0.01 in0.3 mm